createdAt,value
2017-08-02T00:01:35.631Z,87.40
2017-08-02T00:04:02.047Z,87.50
2017-08-02T00:06:29.285Z,88.30
2017-08-02T00:08:55.679Z,88.30
2017-08-02T00:11:22.153Z,88.40
2017-08-02T00:13:48.634Z,88.40
2017-08-02T00:16:15.081Z,88.40
2017-08-02T00:18:41.452Z,87.90
2017-08-02T00:21:07.865Z,87.50
2017-08-02T00:23:34.250Z,87.80
2017-08-02T00:26:00.843Z,87.20
2017-08-02T00:28:28.031Z,86.60
2017-08-02T00:30:54.415Z,86.60
2017-08-02T00:33:20.819Z,86.40
2017-08-02T00:35:47.288Z,86.10
2017-08-02T00:38:13.816Z,86.30
2017-08-02T00:40:40.215Z,86.00
2017-08-02T00:43:06.776Z,85.50
2017-08-02T00:45:33.172Z,85.70
2017-08-02T00:47:59.652Z,86.30
2017-08-02T00:50:26.047Z,86.50
2017-08-02T00:52:52.431Z,86.70
2017-08-02T00:55:18.840Z,87.70
2017-08-02T00:57:45.251Z,87.70
2017-08-02T01:00:11.643Z,87.40
2017-08-02T01:02:38.907Z,86.50
2017-08-02T01:05:06.031Z,87.50
2017-08-02T01:07:32.418Z,87.40
2017-08-02T01:09:58.831Z,87.50
2017-08-02T01:12:25.213Z,87.80
2017-08-02T01:14:51.623Z,87.30
2017-08-02T01:17:18.364Z,87.50
2017-08-02T01:19:45.561Z,88.70
2017-08-02T01:22:12.679Z,89.50
2017-08-02T01:24:39.071Z,89.10
2017-08-02T01:27:05.565Z,89.00
2017-08-02T01:29:32.399Z,89.10
2017-08-02T01:31:59.602Z,88.40
2017-08-02T01:34:26.024Z,88.40
2017-08-02T01:36:52.544Z,88.00
2017-08-02T01:39:19.804Z,88.60
2017-08-02T01:41:47.617Z,89.20
2017-08-02T01:44:14.016Z,89.10
2017-08-02T01:46:40.916Z,88.90
2017-08-02T01:49:09.113Z,89.10
2017-08-02T01:51:36.296Z,90.20
2017-08-02T01:54:03.839Z,89.60
2017-08-02T01:56:30.345Z,89.80
2017-08-02T01:58:56.754Z,89.90
2017-08-02T02:01:24.449Z,89.70
2017-08-02T02:03:51.044Z,89.20
2017-08-02T02:06:17.467Z,89.60
2017-08-02T02:08:44.108Z,89.80
2017-08-02T02:11:11.516Z,89.70
2017-08-02T02:13:38.981Z,89.90
2017-08-02T02:16:05.516Z,89.90
2017-08-02T02:18:32.012Z,90.00
2017-08-02T02:20:58.844Z,89.90
2017-08-02T02:23:26.012Z,90.20
2017-08-02T02:25:52.596Z,90.20
2017-08-02T02:28:20.167Z,90.40
2017-08-02T02:30:46.825Z,90.40
2017-08-02T02:33:14.067Z,90.50
2017-08-02T02:35:40.562Z,90.50
2017-08-02T02:38:07.859Z,90.10
2017-08-02T02:40:35.116Z,90.40
2017-08-02T02:43:01.694Z,90.40
2017-08-02T02:45:28.235Z,90.60
2017-08-02T02:47:54.732Z,90.70
2017-08-02T02:50:21.113Z,90.60
2017-08-02T02:52:48.231Z,90.60
2017-08-02T02:55:14.632Z,90.50
2017-08-02T02:57:41.086Z,90.60
2017-08-02T03:00:07.780Z,90.70
2017-08-02T03:02:34.448Z,90.70
2017-08-02T03:05:00.850Z,90.60
2017-08-02T03:07:27.359Z,90.40
2017-08-02T03:09:53.864Z,90.60
2017-08-02T03:12:20.244Z,90.90
2017-08-02T03:14:46.985Z,90.80
2017-08-02T03:17:13.463Z,90.90
2017-08-02T03:19:40.186Z,90.70
2017-08-02T03:22:06.646Z,90.80
2017-08-02T03:24:33.043Z,90.80
2017-08-02T03:26:59.519Z,90.80
2017-08-02T03:29:25.920Z,90.90
2017-08-02T03:31:52.313Z,90.90
2017-08-02T03:34:19.575Z,90.80
2017-08-02T03:36:46.055Z,90.80
2017-08-02T03:39:12.805Z,90.70
2017-08-02T03:41:39.243Z,90.50
2017-08-02T03:44:05.652Z,90.50
2017-08-02T03:46:32.516Z,90.80
2017-08-02T03:48:58.935Z,90.80
2017-08-02T03:51:25.322Z,90.70
2017-08-02T03:53:51.714Z,90.90
2017-08-02T03:56:18.208Z,91.00
2017-08-02T03:58:44.611Z,91.00
2017-08-02T04:01:11.760Z,91.20
2017-08-02T04:03:38.892Z,91.20
2017-08-02T04:06:05.384Z,91.10
2017-08-02T04:08:32.476Z,91.20
2017-08-02T04:10:58.919Z,91.20
2017-08-02T04:13:26.059Z,91.50
2017-08-02T04:15:53.262Z,91.10
2017-08-02T04:18:20.159Z,90.70
2017-08-02T04:20:46.802Z,90.80
2017-08-02T04:23:13.339Z,91.00
2017-08-02T04:25:39.916Z,91.10
2017-08-02T04:28:06.332Z,91.20
2017-08-02T04:30:32.875Z,91.40
2017-08-02T04:32:59.428Z,91.30
2017-08-02T04:35:25.902Z,91.50
2017-08-02T04:37:54.223Z,91.40
2017-08-02T04:40:20.732Z,91.40
2017-08-02T04:42:47.284Z,91.60
2017-08-02T04:45:13.936Z,91.40
2017-08-02T04:47:40.403Z,91.40
2017-08-02T04:50:06.775Z,91.30
2017-08-02T04:52:33.156Z,91.10
2017-08-02T04:54:59.662Z,91.20
2017-08-02T04:57:26.094Z,91.50
2017-08-02T04:59:52.507Z,91.70
2017-08-02T05:02:18.915Z,91.80
2017-08-02T05:04:45.331Z,91.80
2017-08-02T05:07:11.735Z,91.60
2017-08-02T05:09:38.144Z,91.50
2017-08-02T05:12:04.575Z,91.70
2017-08-02T05:14:30.980Z,91.80
2017-08-02T05:16:57.422Z,91.90
2017-08-02T05:19:24.539Z,91.80
2017-08-02T05:21:50.975Z,91.50
2017-08-02T05:24:17.411Z,91.70
2017-08-02T05:26:43.974Z,91.80
2017-08-02T05:29:11.100Z,92.40
2017-08-02T05:31:37.531Z,92.00
2017-08-02T05:34:04.032Z,92.00
2017-08-02T05:36:30.427Z,92.00
2017-08-02T05:38:57.560Z,91.00
2017-08-02T05:41:23.972Z,91.00
2017-08-02T05:43:50.338Z,89.50
2017-08-02T05:46:17.622Z,89.50
2017-08-02T05:48:44.011Z,89.50
2017-08-02T05:51:10.428Z,89.30
2017-08-02T05:53:36.839Z,88.00
2017-08-02T05:56:03.228Z,87.00
2017-08-02T05:58:29.660Z,87.10
2017-08-02T06:00:56.815Z,88.10
2017-08-02T06:03:23.344Z,88.10
2017-08-02T06:05:51.171Z,85.80
2017-08-02T06:08:17.570Z,85.70
2017-08-02T06:10:43.970Z,86.30
2017-08-02T06:13:11.092Z,86.40
2017-08-02T06:15:37.496Z,86.40
2017-08-02T06:18:03.976Z,83.80
2017-08-02T06:20:31.204Z,82.40
2017-08-02T06:22:57.640Z,82.60
2017-08-02T06:25:24.076Z,81.30
2017-08-02T06:27:50.500Z,80.70
2017-08-02T06:30:16.927Z,80.70
2017-08-02T06:32:43.312Z,82.40
2017-08-02T06:35:09.736Z,80.80
2017-08-02T06:37:36.119Z,81.00
2017-08-02T06:40:02.543Z,80.60
2017-08-02T06:42:28.915Z,80.00
2017-08-02T06:44:55.311Z,79.40
2017-08-02T06:47:21.739Z,78.80
2017-08-02T06:49:48.128Z,78.90
2017-08-02T06:52:14.557Z,77.80
2017-08-02T06:54:40.920Z,78.40
2017-08-02T06:57:07.330Z,79.30
2017-08-02T06:59:33.731Z,77.30
2017-08-02T07:02:00.107Z,76.60
2017-08-02T07:04:26.534Z,76.00
2017-08-02T07:06:52.946Z,74.60
2017-08-02T07:09:19.435Z,74.40
2017-08-02T07:11:45.867Z,73.90
2017-08-02T07:14:12.274Z,74.40
2017-08-02T07:16:38.664Z,74.90
2017-08-02T07:19:05.911Z,73.10
2017-08-02T07:21:32.314Z,74.20
2017-08-02T07:23:58.711Z,74.10
2017-08-02T07:26:25.143Z,72.70
2017-08-02T07:28:51.520Z,71.40
2017-08-02T07:31:17.894Z,70.30
2017-08-02T07:33:44.331Z,67.40
2017-08-02T07:36:10.710Z,66.40
2017-08-02T07:38:37.110Z,67.20
2017-08-02T07:41:03.507Z,66.70
2017-08-02T07:43:29.886Z,66.80
2017-08-02T07:45:56.300Z,65.10
2017-08-02T07:48:22.719Z,62.20
2017-08-02T07:50:49.280Z,61.90
2017-08-02T07:53:15.686Z,62.90
2017-08-02T07:55:42.137Z,61.60
2017-08-02T07:58:08.555Z,60.40
2017-08-02T08:00:35.083Z,60.30
2017-08-02T08:03:01.450Z,58.90
2017-08-02T08:05:27.959Z,59.10
2017-08-02T08:07:54.472Z,59.00
2017-08-02T08:10:20.867Z,58.60
2017-08-02T08:12:47.323Z,58.40
2017-08-02T08:15:13.742Z,57.30
2017-08-02T08:17:40.163Z,58.10
2017-08-02T08:20:06.543Z,57.70
2017-08-02T08:22:32.943Z,57.00
2017-08-02T08:24:59.555Z,57.70
2017-08-02T08:27:25.947Z,57.80
2017-08-02T08:29:52.357Z,57.40
2017-08-02T08:32:18.804Z,57.30
2017-08-02T08:34:45.283Z,58.80
2017-08-02T08:37:11.731Z,57.00
2017-08-02T08:39:38.159Z,56.20
2017-08-02T08:42:04.632Z,55.20
2017-08-02T08:44:31.037Z,54.80
2017-08-02T08:46:57.467Z,55.00
2017-08-02T08:49:23.880Z,55.00
2017-08-02T08:51:50.328Z,56.40
2017-08-02T08:54:16.698Z,55.10
2017-08-02T08:56:43.132Z,54.30
2017-08-02T08:59:09.541Z,54.40
2017-08-02T09:01:36.290Z,54.20
2017-08-02T09:04:02.668Z,55.20
2017-08-02T09:06:29.104Z,53.80
2017-08-02T09:08:55.511Z,53.10
2017-08-02T09:11:21.931Z,55.10
2017-08-02T09:13:49.111Z,52.80
2017-08-02T09:16:16.288Z,52.70
2017-08-02T09:18:42.654Z,52.60
2017-08-02T09:21:09.065Z,56.10
2017-08-02T09:23:35.443Z,55.30
2017-08-02T09:26:01.853Z,56.40
2017-08-02T09:28:28.380Z,56.30
2017-08-02T09:30:54.756Z,55.90
2017-08-02T09:33:21.914Z,56.60
2017-08-02T09:35:48.344Z,56.70
2017-08-02T09:38:14.781Z,54.20
2017-08-02T09:40:41.226Z,56.50
2017-08-02T09:43:07.675Z,54.70
2017-08-02T09:45:34.104Z,55.90
2017-08-02T09:48:00.509Z,55.80
2017-08-02T09:50:26.908Z,54.60
2017-08-02T09:52:53.280Z,53.50
2017-08-02T09:55:19.684Z,53.60
2017-08-02T09:57:46.082Z,53.30
2017-08-02T10:00:12.490Z,52.90
2017-08-02T10:02:38.904Z,52.80
2017-08-02T10:05:05.346Z,52.10
2017-08-02T10:07:31.767Z,51.90
2017-08-02T10:09:58.192Z,51.50
2017-08-02T10:12:24.606Z,52.80
2017-08-02T10:14:51.228Z,52.60
2017-08-02T10:17:17.682Z,52.50
2017-08-02T10:19:44.089Z,52.30
2017-08-02T10:22:10.527Z,51.60
2017-08-02T10:24:36.931Z,51.30
2017-08-02T10:27:03.338Z,52.80
2017-08-02T10:29:29.736Z,54.40
2017-08-02T10:31:56.139Z,51.90
2017-08-02T10:34:22.514Z,54.10
2017-08-02T10:36:48.927Z,55.00
2017-08-02T10:39:15.355Z,51.30
2017-08-02T10:41:41.751Z,52.70
2017-08-02T10:44:08.155Z,50.50
2017-08-02T10:46:35.280Z,49.90
2017-08-02T10:49:01.665Z,49.90
2017-08-02T10:51:28.066Z,49.20
2017-08-02T10:53:55.208Z,49.80
2017-08-02T10:56:22.403Z,50.00
2017-08-02T10:58:48.780Z,49.40
2017-08-02T11:01:15.151Z,47.90
2017-08-02T11:03:41.555Z,49.90
2017-08-02T11:06:08.703Z,48.70
2017-08-02T11:08:35.959Z,46.90
2017-08-02T11:11:02.400Z,46.90
2017-08-02T11:13:28.811Z,50.70
2017-08-02T11:15:55.331Z,51.10
2017-08-02T11:18:21.719Z,52.80
2017-08-02T11:20:48.123Z,50.20
2017-08-02T11:23:15.240Z,50.20
2017-08-02T11:25:41.663Z,50.20
2017-08-02T11:28:08.075Z,47.90
2017-08-02T11:30:34.487Z,49.30
2017-08-02T11:33:00.996Z,47.00
2017-08-02T11:35:28.123Z,47.80
2017-08-02T11:37:54.555Z,47.10
2017-08-02T11:40:21.039Z,46.10
2017-08-02T11:42:54.340Z,47.40
2017-08-02T11:45:20.744Z,47.40
2017-08-02T11:47:48.016Z,46.60
2017-08-02T11:50:15.522Z,46.60
2017-08-02T11:52:41.908Z,48.10
2017-08-02T11:55:08.312Z,46.40
2017-08-02T11:57:35.001Z,46.10
2017-08-02T12:00:03.035Z,49.90
2017-08-02T12:02:29.404Z,49.70
2017-08-02T12:04:56.850Z,48.10
2017-08-02T12:07:23.298Z,48.60
2017-08-02T12:09:49.707Z,47.70
2017-08-02T12:12:16.244Z,46.50
2017-08-02T12:14:42.756Z,48.60
2017-08-02T12:17:09.168Z,46.60
2017-08-02T12:19:35.571Z,46.70
2017-08-02T12:22:01.999Z,45.10
2017-08-02T12:24:28.420Z,44.40
2017-08-02T12:26:54.811Z,45.80
2017-08-02T12:29:21.952Z,46.30
2017-08-02T12:31:48.319Z,46.30
2017-08-02T12:34:14.712Z,43.60
2017-08-02T12:36:41.156Z,41.60
2017-08-02T12:39:07.619Z,44.40
2017-08-02T12:41:34.011Z,41.90
2017-08-02T12:44:00.419Z,44.00
2017-08-02T12:46:26.832Z,41.40
2017-08-02T12:48:53.198Z,42.00
2017-08-02T12:51:19.604Z,40.10
2017-08-02T12:53:45.991Z,39.90
2017-08-02T12:56:12.423Z,39.90
2017-08-02T12:58:38.795Z,38.50
2017-08-02T13:01:05.208Z,38.00
2017-08-02T13:03:31.617Z,38.40
2017-08-02T13:05:58.371Z,39.10
2017-08-02T13:08:24.769Z,36.40
2017-08-02T13:10:51.156Z,37.90
2017-08-02T13:13:18.660Z,36.00
2017-08-02T13:15:45.887Z,35.80
2017-08-02T13:18:12.287Z,37.50
2017-08-02T13:20:38.693Z,35.80
2017-08-02T13:23:05.839Z,37.10
2017-08-02T13:25:32.275Z,37.10
2017-08-02T13:27:59.424Z,36.70
2017-08-02T13:30:25.885Z,36.10
2017-08-02T13:32:52.402Z,34.20
2017-08-02T13:35:19.548Z,36.80
2017-08-02T13:37:46.747Z,37.00
2017-08-02T13:40:13.290Z,37.00
2017-08-02T13:42:39.680Z,34.90
2017-08-02T13:45:06.100Z,36.30
2017-08-02T13:47:33.267Z,34.50
2017-08-02T13:49:59.655Z,34.50
2017-08-02T13:52:26.044Z,38.20
2017-08-02T13:54:52.458Z,35.30
2017-08-02T13:57:18.887Z,40.30
2017-08-02T13:59:45.409Z,39.10
2017-08-02T14:02:12.526Z,35.80
2017-08-02T14:04:38.907Z,35.70
2017-08-02T14:07:06.060Z,39.00
2017-08-02T14:09:32.476Z,39.10
2017-08-02T14:11:59.595Z,38.90
2017-08-02T14:14:26.115Z,38.90
2017-08-02T14:16:52.551Z,39.40
2017-08-02T14:19:19.063Z,40.30
2017-08-02T14:21:45.487Z,38.00
2017-08-02T14:24:12.111Z,40.00
2017-08-02T14:26:39.251Z,38.30
2017-08-02T14:29:05.634Z,38.30
2017-08-02T14:31:32.058Z,37.80
2017-08-02T14:33:58.546Z,37.20
2017-08-02T14:36:25.688Z,38.90
2017-08-02T14:38:52.119Z,38.30
2017-08-02T14:41:18.495Z,38.30
2017-08-02T14:43:44.939Z,38.60
2017-08-02T14:46:11.342Z,38.00
2017-08-02T14:48:37.778Z,39.70
2017-08-02T14:51:04.140Z,38.30
2017-08-02T14:53:30.831Z,37.80
2017-08-02T14:55:57.975Z,39.10
2017-08-02T14:58:24.385Z,39.10
2017-08-02T15:00:50.846Z,42.30
2017-08-02T15:03:17.232Z,41.20
2017-08-02T15:05:43.624Z,42.30
2017-08-02T15:08:10.855Z,42.80
2017-08-02T15:10:38.228Z,44.60
2017-08-02T15:13:04.666Z,44.70
2017-08-02T15:15:31.050Z,44.40
2017-08-02T15:17:57.628Z,45.50
2017-08-02T15:20:24.759Z,49.10
2017-08-02T15:22:51.195Z,49.10
2017-08-02T15:25:18.532Z,45.70
2017-08-02T15:27:44.973Z,45.70
2017-08-02T15:30:11.512Z,46.60
2017-08-02T15:32:38.682Z,48.90
2017-08-02T15:35:05.226Z,48.30
2017-08-02T15:37:31.918Z,48.80
2017-08-02T15:39:58.416Z,48.80
2017-08-02T15:42:24.858Z,50.60
2017-08-02T15:44:51.283Z,49.90
2017-08-02T15:47:17.698Z,51.50
2017-08-02T15:49:44.120Z,50.20
2017-08-02T15:52:10.608Z,51.30
2017-08-02T15:54:36.995Z,52.10
2017-08-02T15:57:03.411Z,52.40
2017-08-02T15:59:30.559Z,50.30
2017-08-02T16:01:56.968Z,50.20
2017-08-02T16:04:23.333Z,50.30
2017-08-02T16:06:50.466Z,53.50
2017-08-02T16:09:17.055Z,53.50
2017-08-02T16:11:44.311Z,57.90
2017-08-02T16:14:10.690Z,57.90
2017-08-02T16:16:37.204Z,60.80
2017-08-02T16:19:03.616Z,65.70
2017-08-02T16:21:30.277Z,71.70
2017-08-02T16:23:56.875Z,75.10
2017-08-02T16:26:23.255Z,79.60
2017-08-02T16:28:49.722Z,81.70
2017-08-02T16:31:16.371Z,77.60
2017-08-02T16:33:42.758Z,81.60
2017-08-02T16:36:09.201Z,79.90
2017-08-02T16:38:35.804Z,81.20
2017-08-02T16:41:02.223Z,82.00
2017-08-02T16:43:28.777Z,84.60
2017-08-02T16:45:55.366Z,85.60
2017-08-02T16:48:22.294Z,86.50
2017-08-02T16:50:48.772Z,88.20
2017-08-02T16:53:15.356Z,90.00
2017-08-02T16:55:41.944Z,90.60
2017-08-02T16:58:08.407Z,90.30
2017-08-02T17:00:34.859Z,90.70
2017-08-02T17:03:01.355Z,91.40
2017-08-02T17:05:27.789Z,92.10
2017-08-02T17:07:54.203Z,91.90
2017-08-02T17:10:20.602Z,91.80
2017-08-02T17:12:47.903Z,91.50
2017-08-02T17:15:14.288Z,91.50
2017-08-02T17:17:41.422Z,92.20
2017-08-02T17:20:08.163Z,92.10
2017-08-02T17:22:34.543Z,91.90
2017-08-02T17:25:00.908Z,92.00
2017-08-02T17:27:27.363Z,92.30
2017-08-02T17:29:54.531Z,92.50
2017-08-02T17:32:20.955Z,92.40
2017-08-02T17:34:48.082Z,92.20
2017-08-02T17:37:15.180Z,92.20
2017-08-02T17:39:41.593Z,92.30
2017-08-02T17:42:08.753Z,92.30
2017-08-02T17:44:35.142Z,92.30
2017-08-02T17:47:01.550Z,92.40
2017-08-02T17:49:27.959Z,92.80
2017-08-02T17:51:54.346Z,91.90
2017-08-02T17:54:20.731Z,92.40
2017-08-02T17:56:47.164Z,93.10
2017-08-02T17:59:13.555Z,94.00
2017-08-02T18:01:40.727Z,93.80
2017-08-02T18:04:07.115Z,93.80
2017-08-02T18:06:33.559Z,94.10
2017-08-02T18:08:59.944Z,94.30
2017-08-02T18:11:26.346Z,95.30
2017-08-02T18:13:53.490Z,95.50
2017-08-02T18:16:20.657Z,96.30
2017-08-02T18:18:47.135Z,96.00
2017-08-02T18:21:13.523Z,96.20
2017-08-02T18:23:39.912Z,97.20
2017-08-02T18:26:06.337Z,97.60
2017-08-02T18:28:33.067Z,98.60
2017-08-02T18:31:00.258Z,99.30
2017-08-02T18:33:27.747Z,99.90
2017-08-02T18:35:54.296Z,99.90
2017-08-02T18:38:21.175Z,99.90
2017-08-02T18:40:47.754Z,99.90
2017-08-02T18:43:14.160Z,99.90
2017-08-02T18:45:41.310Z,99.90
2017-08-02T18:48:08.472Z,99.90
2017-08-02T18:50:35.615Z,99.90
2017-08-02T18:53:02.774Z,99.90
2017-08-02T18:55:29.953Z,99.30
2017-08-02T18:57:56.717Z,99.30
2017-08-02T19:00:23.316Z,99.00
2017-08-02T19:02:50.691Z,99.60
2017-08-02T19:05:17.268Z,99.90
2017-08-02T19:07:44.699Z,99.90
2017-08-02T19:10:11.080Z,99.90
2017-08-02T19:12:38.197Z,99.90
2017-08-02T19:15:05.468Z,99.90
2017-08-02T19:17:32.822Z,99.90
2017-08-02T19:20:00.060Z,99.90
2017-08-02T19:22:26.700Z,99.90
2017-08-02T19:24:53.158Z,99.90
2017-08-02T19:27:19.689Z,99.90
2017-08-02T19:29:47.177Z,99.90
2017-08-02T19:32:14.269Z,99.90
2017-08-02T19:34:40.764Z,99.90
2017-08-02T19:37:07.400Z,99.90
2017-08-02T19:39:35.632Z,99.90
2017-08-02T19:42:03.445Z,99.90
2017-08-02T19:44:35.814Z,99.90
2017-08-02T19:47:02.403Z,99.90
2017-08-02T19:52:21.892Z,99.70
2017-08-02T19:54:48.331Z,99.90
2017-08-02T19:57:15.595Z,99.90
2017-08-02T19:59:43.088Z,99.90
2017-08-02T20:02:09.544Z,99.90
2017-08-02T20:04:36.174Z,99.90
2017-08-02T20:07:02.612Z,99.90
2017-08-02T20:09:29.975Z,99.90
2017-08-02T20:11:56.375Z,99.90
2017-08-02T20:14:22.976Z,99.90
2017-08-02T20:16:49.607Z,99.90
2017-08-02T20:19:15.992Z,99.90
2017-08-02T20:21:42.714Z,99.90
2017-08-02T20:24:10.465Z,99.90
2017-08-02T20:26:37.032Z,99.90
2017-08-02T20:29:03.667Z,99.90
2017-08-02T20:31:30.083Z,99.90
2017-08-02T20:33:56.796Z,99.90
2017-08-02T20:36:23.266Z,99.90
2017-08-02T20:38:50.468Z,99.90
2017-08-02T20:41:17.022Z,99.90
2017-08-02T20:43:43.499Z,99.90
2017-08-02T20:46:09.916Z,99.90
2017-08-02T20:48:36.350Z,99.90
2017-08-02T20:51:03.025Z,98.60
2017-08-02T20:53:29.412Z,98.20
2017-08-02T20:55:55.883Z,96.80
2017-08-02T20:58:22.379Z,98.00
2017-08-02T21:00:48.767Z,96.40
2017-08-02T21:03:15.198Z,97.00
2017-08-02T21:05:41.631Z,97.20
2017-08-02T21:08:08.030Z,97.70
2017-08-02T21:10:50.219Z,98.00
2017-08-02T21:13:16.606Z,98.00
2017-08-02T21:15:43.000Z,97.00
2017-08-02T21:18:09.416Z,96.80
2017-08-02T21:20:35.792Z,96.50
2017-08-02T21:23:02.203Z,98.10
2017-08-02T21:25:28.618Z,98.50
2017-08-02T21:27:55.035Z,99.40
2017-08-02T21:30:21.452Z,99.80
2017-08-02T21:32:47.892Z,99.00
2017-08-02T21:35:15.039Z,99.90
2017-08-02T21:37:42.251Z,99.90
2017-08-02T21:40:08.779Z,99.90
2017-08-02T21:42:35.163Z,98.80
2017-08-02T21:45:01.535Z,99.90
2017-08-02T21:47:27.935Z,99.90
2017-08-02T21:49:54.338Z,99.90
2017-08-02T21:52:20.755Z,99.90
2017-08-02T21:54:47.135Z,99.90
2017-08-02T21:57:13.575Z,99.90
2017-08-02T21:59:39.992Z,99.90
2017-08-02T22:02:06.483Z,99.90
2017-08-02T22:04:32.923Z,99.90
2017-08-02T22:06:59.319Z,99.90
2017-08-02T22:09:25.757Z,99.90
2017-08-02T22:11:52.255Z,99.90
2017-08-02T22:14:18.702Z,99.90
2017-08-02T22:16:45.131Z,99.90
2017-08-02T22:19:11.490Z,99.90
2017-08-02T22:21:37.859Z,99.90
2017-08-02T22:24:11.347Z,99.90
2017-08-02T22:26:37.715Z,99.90
2017-08-02T22:29:04.116Z,99.90
2017-08-02T22:31:30.639Z,99.90
2017-08-02T22:33:57.778Z,99.90
2017-08-02T22:36:24.390Z,99.90
2017-08-02T22:38:50.755Z,99.90
2017-08-02T22:41:17.159Z,99.90
2017-08-02T22:43:43.567Z,99.90
2017-08-02T22:46:09.977Z,99.90
2017-08-02T22:48:37.248Z,99.90
2017-08-02T22:51:04.348Z,99.60
2017-08-02T22:53:30.763Z,99.60
2017-08-02T22:56:12.099Z,99.90
2017-08-02T22:58:39.203Z,99.90
2017-08-02T23:01:05.626Z,99.90
2017-08-02T23:03:32.036Z,99.60
2017-08-02T23:05:58.439Z,98.80
2017-08-02T23:08:24.850Z,97.90
2017-08-02T23:10:51.207Z,98.80
2017-08-02T23:13:18.439Z,96.60
2017-08-02T23:15:44.828Z,96.90
2017-08-02T23:18:11.211Z,96.80
2017-08-02T23:20:37.613Z,97.70
2017-08-02T23:23:03.975Z,95.50
2017-08-02T23:25:30.412Z,95.80
2017-08-02T23:27:56.822Z,96.30
2017-08-02T23:30:23.263Z,96.50
2017-08-02T23:32:49.661Z,96.50
2017-08-02T23:35:16.027Z,96.40
2017-08-02T23:37:42.547Z,96.70
2017-08-02T23:40:08.907Z,95.90
2017-08-02T23:42:35.267Z,96.50
2017-08-02T23:45:01.664Z,95.70
2017-08-02T23:47:28.071Z,96.40
2017-08-02T23:49:54.510Z,97.00
2017-08-02T23:52:20.867Z,97.20
2017-08-02T23:54:47.975Z,97.60
2017-08-02T23:57:14.386Z,97.60
2017-08-02T23:59:40.788Z,97.30
